createdAt,value
2019-06-08T00:09:53.831Z,52.70
2019-06-08T00:19:55.810Z,52.30
2019-06-08T00:29:59.684Z,52.30
2019-06-08T00:40:01.814Z,51.50
2019-06-08T00:50:03.535Z,51.10
2019-06-08T01:00:10.554Z,50.20
2019-06-08T01:10:10.309Z,50.90
2019-06-08T01:20:12.544Z,50.60
2019-06-08T01:30:14.178Z,50.30
2019-06-08T01:40:16.832Z,47.30
2019-06-08T01:50:18.872Z,49.20
2019-06-08T02:00:30.316Z,49.20
2019-06-08T02:10:25.132Z,48.90
2019-06-08T02:20:28.616Z,49.30
2019-06-08T02:30:33.553Z,49.50
2019-06-08T02:40:36.635Z,49.20
2019-06-08T02:50:57.188Z,49.00
2019-06-08T03:01:00.757Z,49.20
2019-06-08T03:11:03.924Z,49.70
2019-06-08T03:21:05.932Z,50.00
2019-06-08T03:31:08.003Z,50.00
2019-06-08T03:41:09.960Z,49.70
2019-06-08T03:51:12.058Z,49.60
2019-06-08T04:01:14.046Z,50.20
2019-06-08T04:11:16.029Z,49.10
2019-06-08T04:21:17.938Z,48.80
2019-06-08T04:31:20.002Z,48.60
2019-06-08T04:41:22.010Z,48.50
2019-06-08T04:51:24.025Z,48.20
2019-06-08T05:01:25.975Z,48.20
2019-06-08T05:11:27.978Z,47.60
2019-06-08T05:21:29.947Z,47.30
2019-06-08T05:31:32.061Z,46.80
2019-06-08T05:41:34.440Z,46.70
2019-06-08T05:51:35.976Z,46.70
2019-06-08T06:01:38.285Z,45.40
2019-06-08T06:11:40.656Z,46.30
2019-06-08T06:21:43.017Z,45.20
2019-06-08T06:31:45.828Z,45.80
2019-06-08T06:41:47.937Z,45.70
2019-06-08T06:51:50.532Z,45.90
2019-06-08T07:01:57.178Z,45.90
2019-06-08T07:11:56.819Z,45.30
2019-06-08T07:21:58.790Z,45.00
2019-06-08T07:32:00.806Z,44.80
2019-06-08T07:42:02.931Z,43.90
2019-06-08T07:52:10.310Z,44.10
2019-06-08T08:02:08.855Z,43.90
2019-06-08T08:12:12.315Z,42.60
2019-06-08T08:22:25.052Z,42.20
2019-06-08T08:32:18.779Z,41.40
2019-06-08T08:42:20.952Z,40.90
2019-06-08T08:52:34.459Z,41.40
2019-06-08T09:02:27.713Z,38.90
2019-06-08T09:12:29.773Z,40.50
2019-06-08T09:22:31.749Z,40.90
2019-06-08T09:32:33.759Z,40.80
2019-06-08T09:42:35.347Z,39.50
2019-06-08T09:52:40.893Z,37.70
2019-06-08T10:02:41.308Z,39.90
2019-06-08T10:12:42.813Z,39.40
2019-06-08T10:22:44.843Z,36.70
2019-06-08T10:32:50.382Z,37.60
2019-06-08T10:42:50.218Z,35.60
2019-06-08T10:52:52.243Z,36.60
2019-06-08T11:02:54.163Z,35.60
2019-06-08T11:12:58.298Z,34.70
2019-06-08T11:23:01.784Z,34.90
2019-06-08T11:33:04.020Z,34.60
2019-06-08T11:43:06.458Z,35.70
2019-06-08T11:53:13.637Z,36.00
2019-06-08T12:03:13.097Z,36.10
2019-06-08T12:13:17.517Z,34.60
2019-06-08T12:23:19.034Z,34.90
2019-06-08T12:33:22.919Z,34.50
2019-06-08T12:43:24.847Z,33.80
2019-06-08T12:53:28.290Z,32.60
2019-06-08T13:03:30.524Z,31.50
2019-06-08T13:13:32.596Z,31.20
2019-06-08T13:23:34.563Z,32.50
2019-06-08T13:33:38.282Z,32.80
2019-06-08T13:43:40.628Z,32.70
2019-06-08T13:53:42.764Z,30.50
2019-06-08T14:03:44.916Z,33.00
2019-06-08T14:13:48.015Z,32.40
2019-06-08T14:23:50.087Z,30.50
2019-06-08T14:33:52.156Z,30.70
2019-06-08T14:43:54.222Z,28.00
2019-06-08T14:53:58.239Z,28.10
2019-06-08T15:04:00.207Z,27.90
2019-06-08T15:14:02.387Z,29.80
2019-06-08T15:24:04.556Z,30.30
2019-06-08T15:34:10.448Z,30.30
2019-06-08T15:44:10.524Z,30.90
2019-06-08T15:54:12.744Z,32.30
2019-06-08T16:04:15.404Z,33.10
2019-06-08T16:14:17.535Z,33.80
2019-06-08T16:24:19.727Z,33.80
2019-06-08T16:34:21.866Z,36.30
2019-06-08T16:44:24.431Z,37.50
2019-06-08T16:54:26.660Z,38.10
2019-06-08T17:04:28.853Z,39.60
2019-06-08T17:14:34.137Z,40.40
2019-06-08T17:24:36.779Z,39.80
2019-06-08T17:34:40.142Z,39.80
2019-06-08T17:44:42.664Z,40.50
2019-06-08T17:54:44.882Z,41.30
2019-06-08T18:04:48.497Z,41.80
2019-06-08T18:14:50.627Z,42.50
2019-06-08T18:24:52.610Z,43.00
2019-06-08T18:34:54.091Z,43.10
2019-06-08T18:44:58.210Z,43.10
2019-06-08T18:54:59.988Z,42.80
2019-06-08T19:05:02.060Z,43.00
2019-06-08T19:15:04.706Z,44.40
2019-06-08T19:25:07.830Z,46.90
2019-06-08T19:35:10.011Z,50.70
2019-06-08T19:45:12.227Z,55.30
2019-06-08T19:55:13.784Z,58.90
2019-06-08T20:05:17.470Z,70.10
2019-06-08T20:15:19.754Z,62.60
2019-06-08T20:25:21.767Z,64.10
2019-06-08T20:35:23.714Z,65.00
2019-06-08T20:45:27.801Z,65.70
2019-06-08T20:55:29.596Z,66.20
2019-06-08T21:05:31.628Z,66.60
2019-06-08T21:15:33.579Z,67.00
2019-06-08T21:25:37.257Z,66.60
2019-06-08T21:35:39.515Z,66.50
2019-06-08T21:45:41.576Z,66.90
2019-06-08T21:55:43.559Z,66.70
2019-06-08T22:05:47.337Z,67.00
2019-06-08T22:15:51.532Z,67.20
2019-06-08T22:25:53.461Z,67.20
2019-06-08T22:35:58.526Z,67.40
2019-06-08T22:46:01.692Z,67.90
2019-06-08T22:56:04.431Z,68.40
2019-06-08T23:06:08.845Z,68.40
2019-06-08T23:16:10.478Z,68.30
2019-06-08T23:26:12.460Z,68.60
2019-06-08T23:36:45.632Z,68.50
2019-06-08T23:46:18.417Z,68.50
2019-06-08T23:56:20.401Z,68.80
